sensor_id;sensor_type;location;lat;lon;timestamp;P1;durP1;ratioP1;P2;durP2;ratioP2
56381;SDS011;50261;51.150;4.470;2022-08-18T00:02:10;64.38;;;52.65;;
56381;SDS011;50261;51.150;4.470;2022-08-18T00:04:36;67.53;;;55.15;;
56381;SDS011;50261;51.150;4.470;2022-08-18T00:07:03;65.32;;;55.83;;
56381;SDS011;50261;51.150;4.470;2022-08-18T00:09:29;64.38;;;54.58;;
56381;SDS011;50261;51.150;4.470;2022-08-18T00:11:55;66.13;;;54.38;;
56381;SDS011;50261;51.150;4.470;2022-08-18T00:14:21;65.22;;;54.00;;
56381;SDS011;50261;51.150;4.470;2022-08-18T00:16:47;60.80;;;50.67;;
56381;SDS011;50261;51.150;4.470;2022-08-18T00:19:12;62.05;;;52.28;;
56381;SDS011;50261;51.150;4.470;2022-08-18T00:21:38;61.97;;;51.35;;
56381;SDS011;50261;51.150;4.470;2022-08-18T00:24:03;57.92;;;48.85;;
56381;SDS011;50261;51.150;4.470;2022-08-18T00:26:29;59.47;;;48.80;;
56381;SDS011;50261;51.150;4.470;2022-08-18T00:28:54;58.60;;;48.83;;
56381;SDS011;50261;51.150;4.470;2022-08-18T00:31:20;62.40;;;49.88;;
56381;SDS011;50261;51.150;4.470;2022-08-18T00:33:45;55.50;;;46.97;;
56381;SDS011;50261;51.150;4.470;2022-08-18T00:36:11;57.75;;;48.08;;
56381;SDS011;50261;51.150;4.470;2022-08-18T00:38:37;56.55;;;46.88;;
56381;SDS011;50261;51.150;4.470;2022-08-18T00:41:03;53.65;;;46.83;;
56381;SDS011;50261;51.150;4.470;2022-08-18T00:43:42;54.97;;;45.55;;
56381;SDS011;50261;51.150;4.470;2022-08-18T00:46:11;54.67;;;46.33;;
56381;SDS011;50261;51.150;4.470;2022-08-18T00:48:38;54.97;;;45.25;;
56381;SDS011;50261;51.150;4.470;2022-08-18T00:51:07;51.83;;;44.55;;
56381;SDS011;50261;51.150;4.470;2022-08-18T00:53:45;51.13;;;43.25;;
56381;SDS011;50261;51.150;4.470;2022-08-18T00:56:21;48.58;;;42.47;;
56381;SDS011;50261;51.150;4.470;2022-08-18T00:58:57;50.13;;;42.72;;
56381;SDS011;50261;51.150;4.470;2022-08-18T01:01:24;47.55;;;41.53;;
56381;SDS011;50261;51.150;4.470;2022-08-18T01:03:52;47.20;;;40.58;;
56381;SDS011;50261;51.150;4.470;2022-08-18T01:08:50;52.58;;;40.85;;
56381;SDS011;50261;51.150;4.470;2022-08-18T01:11:15;48.80;;;40.33;;
56381;SDS011;50261;51.150;4.470;2022-08-18T01:13:41;46.85;;;40.05;;
56381;SDS011;50261;51.150;4.470;2022-08-18T01:16:07;47.30;;;38.67;;
56381;SDS011;50261;51.150;4.470;2022-08-18T01:18:51;45.80;;;38.90;;
56381;SDS011;50261;51.150;4.470;2022-08-18T01:21:38;47.08;;;39.92;;
56381;SDS011;50261;51.150;4.470;2022-08-18T01:24:21;48.88;;;39.10;;
56381;SDS011;50261;51.150;4.470;2022-08-18T01:27:08;48.63;;;40.10;;
56381;SDS011;50261;51.150;4.470;2022-08-18T01:29:34;47.50;;;40.05;;
56381;SDS011;50261;51.150;4.470;2022-08-18T01:32:00;48.65;;;41.38;;
56381;SDS011;50261;51.150;4.470;2022-08-18T01:34:26;53.10;;;43.03;;
56381;SDS011;50261;51.150;4.470;2022-08-18T01:36:52;50.97;;;42.58;;
56381;SDS011;50261;51.150;4.470;2022-08-18T01:39:19;51.95;;;42.78;;
56381;SDS011;50261;51.150;4.470;2022-08-18T01:41:45;50.08;;;42.00;;
56381;SDS011;50261;51.150;4.470;2022-08-18T01:44:10;51.00;;;42.05;;
56381;SDS011;50261;51.150;4.470;2022-08-18T01:46:37;53.47;;;42.63;;
56381;SDS011;50261;51.150;4.470;2022-08-18T01:49:04;49.47;;;42.47;;
56381;SDS011;50261;51.150;4.470;2022-08-18T01:51:30;51.83;;;43.15;;
56381;SDS011;50261;51.150;4.470;2022-08-18T01:53:57;49.90;;;41.85;;
56381;SDS011;50261;51.150;4.470;2022-08-18T01:56:22;52.95;;;43.35;;
56381;SDS011;50261;51.150;4.470;2022-08-18T01:58:51;52.92;;;44.22;;
56381;SDS011;50261;51.150;4.470;2022-08-18T02:01:16;53.00;;;42.10;;
56381;SDS011;50261;51.150;4.470;2022-08-18T02:03:44;55.17;;;43.35;;
56381;SDS011;50261;51.150;4.470;2022-08-18T02:06:11;50.38;;;42.80;;
56381;SDS011;50261;51.150;4.470;2022-08-18T02:08:38;53.25;;;43.83;;
56381;SDS011;50261;51.150;4.470;2022-08-18T02:11:04;51.00;;;42.72;;
56381;SDS011;50261;51.150;4.470;2022-08-18T02:13:30;53.33;;;42.10;;
56381;SDS011;50261;51.150;4.470;2022-08-18T02:15:56;49.83;;;42.25;;
56381;SDS011;50261;51.150;4.470;2022-08-18T02:18:23;47.38;;;40.78;;
56381;SDS011;50261;51.150;4.470;2022-08-18T02:20:49;49.63;;;41.05;;
56381;SDS011;50261;51.150;4.470;2022-08-18T02:23:14;47.80;;;40.60;;
56381;SDS011;50261;51.150;4.470;2022-08-18T02:25:43;49.22;;;39.72;;
56381;SDS011;50261;51.150;4.470;2022-08-18T02:28:09;49.28;;;41.17;;
56381;SDS011;50261;51.150;4.470;2022-08-18T02:30:34;51.90;;;42.70;;
56381;SDS011;50261;51.150;4.470;2022-08-18T02:33:03;49.00;;;41.53;;
56381;SDS011;50261;51.150;4.470;2022-08-18T02:35:29;49.47;;;42.15;;
56381;SDS011;50261;51.150;4.470;2022-08-18T02:37:57;48.92;;;42.65;;
56381;SDS011;50261;51.150;4.470;2022-08-18T02:40:23;51.75;;;44.33;;
56381;SDS011;50261;51.150;4.470;2022-08-18T02:42:48;52.60;;;43.78;;
56381;SDS011;50261;51.150;4.470;2022-08-18T02:45:14;57.83;;;47.17;;
56381;SDS011;50261;51.150;4.470;2022-08-18T02:47:40;51.70;;;43.92;;
56381;SDS011;50261;51.150;4.470;2022-08-18T02:50:05;53.67;;;45.15;;
56381;SDS011;50261;51.150;4.470;2022-08-18T02:52:31;49.90;;;42.33;;
56381;SDS011;50261;51.150;4.470;2022-08-18T02:55:00;53.53;;;43.22;;
56381;SDS011;50261;51.150;4.470;2022-08-18T02:57:26;54.20;;;43.33;;
56381;SDS011;50261;51.150;4.470;2022-08-18T02:59:52;50.40;;;42.92;;
56381;SDS011;50261;51.150;4.470;2022-08-18T03:02:18;53.30;;;45.88;;
56381;SDS011;50261;51.150;4.470;2022-08-18T03:04:44;51.38;;;43.72;;
56381;SDS011;50261;51.150;4.470;2022-08-18T03:07:10;48.38;;;42.33;;
56381;SDS011;50261;51.150;4.470;2022-08-18T03:09:36;53.33;;;44.60;;
56381;SDS011;50261;51.150;4.470;2022-08-18T03:12:01;54.42;;;43.90;;
56381;SDS011;50261;51.150;4.470;2022-08-18T03:14:27;52.20;;;45.05;;
56381;SDS011;50261;51.150;4.470;2022-08-18T03:16:53;49.95;;;42.70;;
56381;SDS011;50261;51.150;4.470;2022-08-18T03:19:18;53.03;;;44.90;;
56381;SDS011;50261;51.150;4.470;2022-08-18T03:21:45;52.65;;;44.95;;
56381;SDS011;50261;51.150;4.470;2022-08-18T03:24:11;54.72;;;46.53;;
56381;SDS011;50261;51.150;4.470;2022-08-18T03:26:39;52.35;;;45.20;;
56381;SDS011;50261;51.150;4.470;2022-08-18T03:29:05;50.50;;;44.40;;
56381;SDS011;50261;51.150;4.470;2022-08-18T03:31:31;79.95;;;50.60;;
56381;SDS011;50261;51.150;4.470;2022-08-18T03:33:57;209.20;;;55.35;;
56381;SDS011;50261;51.150;4.470;2022-08-18T03:36:24;84.70;;;53.60;;
56381;SDS011;50261;51.150;4.470;2022-08-18T03:38:51;209.50;;;56.42;;
56381;SDS011;50261;51.150;4.470;2022-08-18T03:41:19;170.60;;;58.10;;
56381;SDS011;50261;51.150;4.470;2022-08-18T03:43:47;352.75;;;57.00;;
56381;SDS011;50261;51.150;4.470;2022-08-18T03:46:13;183.13;;;55.58;;
56381;SDS011;50261;51.150;4.470;2022-08-18T03:48:39;120.60;;;56.63;;
56381;SDS011;50261;51.150;4.470;2022-08-18T03:51:06;102.10;;;51.60;;
56381;SDS011;50261;51.150;4.470;2022-08-18T03:53:36;89.20;;;50.65;;
56381;SDS011;50261;51.150;4.470;2022-08-18T03:56:05;106.95;;;49.63;;
56381;SDS011;50261;51.150;4.470;2022-08-18T03:58:31;218.35;;;51.45;;
56381;SDS011;50261;51.150;4.470;2022-08-18T04:00:57;130.38;;;47.53;;
56381;SDS011;50261;51.150;4.470;2022-08-18T04:03:22;101.80;;;48.50;;
56381;SDS011;50261;51.150;4.470;2022-08-18T04:05:48;68.30;;;47.95;;
56381;SDS011;50261;51.150;4.470;2022-08-18T04:08:13;114.10;;;45.08;;
56381;SDS011;50261;51.150;4.470;2022-08-18T04:10:39;107.53;;;43.72;;
56381;SDS011;50261;51.150;4.470;2022-08-18T04:13:04;223.15;;;41.50;;
56381;SDS011;50261;51.150;4.470;2022-08-18T04:15:30;123.47;;;41.88;;
56381;SDS011;50261;51.150;4.470;2022-08-18T04:17:59;171.50;;;41.92;;
56381;SDS011;50261;51.150;4.470;2022-08-18T04:20:24;100.45;;;42.55;;
56381;SDS011;50261;51.150;4.470;2022-08-18T04:22:50;165.95;;;40.17;;
56381;SDS011;50261;51.150;4.470;2022-08-18T04:25:15;85.35;;;41.83;;
56381;SDS011;50261;51.150;4.470;2022-08-18T04:27:41;63.40;;;40.95;;
56381;SDS011;50261;51.150;4.470;2022-08-18T04:30:08;60.38;;;41.33;;
56381;SDS011;50261;51.150;4.470;2022-08-18T04:32:33;71.10;;;41.22;;
56381;SDS011;50261;51.150;4.470;2022-08-18T04:34:59;50.08;;;40.78;;
56381;SDS011;50261;51.150;4.470;2022-08-18T04:37:25;52.08;;;41.10;;
56381;SDS011;50261;51.150;4.470;2022-08-18T04:39:50;52.60;;;40.53;;
56381;SDS011;50261;51.150;4.470;2022-08-18T04:42:16;46.38;;;40.05;;
56381;SDS011;50261;51.150;4.470;2022-08-18T04:44:41;44.40;;;39.75;;
56381;SDS011;50261;51.150;4.470;2022-08-18T04:47:07;43.35;;;38.83;;
56381;SDS011;50261;51.150;4.470;2022-08-18T04:49:33;42.38;;;37.78;;
56381;SDS011;50261;51.150;4.470;2022-08-18T04:51:59;43.45;;;38.22;;
56381;SDS011;50261;51.150;4.470;2022-08-18T04:54:43;42.65;;;38.08;;
56381;SDS011;50261;51.150;4.470;2022-08-18T04:57:15;41.60;;;37.17;;
56381;SDS011;50261;51.150;4.470;2022-08-18T04:59:42;42.70;;;38.08;;
56381;SDS011;50261;51.150;4.470;2022-08-18T05:02:08;44.88;;;40.03;;
56381;SDS011;50261;51.150;4.470;2022-08-18T05:04:35;43.45;;;38.67;;
56381;SDS011;50261;51.150;4.470;2022-08-18T05:07:02;42.03;;;37.50;;
56381;SDS011;50261;51.150;4.470;2022-08-18T05:09:28;43.95;;;39.15;;
56381;SDS011;50261;51.150;4.470;2022-08-18T05:11:53;45.45;;;39.35;;
56381;SDS011;50261;51.150;4.470;2022-08-18T05:14:19;42.67;;;38.17;;
56381;SDS011;50261;51.150;4.470;2022-08-18T05:16:45;41.70;;;37.40;;
56381;SDS011;50261;51.150;4.470;2022-08-18T05:19:11;41.97;;;37.58;;
56381;SDS011;50261;51.150;4.470;2022-08-18T05:21:36;41.78;;;37.33;;
56381;SDS011;50261;51.150;4.470;2022-08-18T05:24:04;43.25;;;38.47;;
56381;SDS011;50261;51.150;4.470;2022-08-18T05:26:30;47.42;;;39.83;;
56381;SDS011;50261;51.150;4.470;2022-08-18T05:28:56;43.05;;;38.35;;
56381;SDS011;50261;51.150;4.470;2022-08-18T05:31:23;43.40;;;38.78;;
56381;SDS011;50261;51.150;4.470;2022-08-18T05:33:49;46.08;;;41.10;;
56381;SDS011;50261;51.150;4.470;2022-08-18T05:41:10;41.38;;;36.90;;
56381;SDS011;50261;51.150;4.470;2022-08-18T05:43:36;44.45;;;38.15;;
56381;SDS011;50261;51.150;4.470;2022-08-18T05:46:02;43.42;;;38.72;;
56381;SDS011;50261;51.150;4.470;2022-08-18T05:48:29;46.97;;;38.40;;
56381;SDS011;50261;51.150;4.470;2022-08-18T05:50:55;49.63;;;38.75;;
56381;SDS011;50261;51.150;4.470;2022-08-18T05:53:21;42.92;;;38.38;;
56381;SDS011;50261;51.150;4.470;2022-08-18T05:56:06;41.97;;;37.47;;
56381;SDS011;50261;51.150;4.470;2022-08-18T05:58:53;44.70;;;39.47;;
56381;SDS011;50261;51.150;4.470;2022-08-18T06:01:21;42.97;;;38.38;;
56381;SDS011;50261;51.150;4.470;2022-08-18T06:03:55;44.28;;;38.40;;
56381;SDS011;50261;51.150;4.470;2022-08-18T06:06:24;42.83;;;38.25;;
56381;SDS011;50261;51.150;4.470;2022-08-18T06:11:17;42.55;;;37.97;;
56381;SDS011;50261;51.150;4.470;2022-08-18T06:13:43;45.88;;;37.95;;
56381;SDS011;50261;51.150;4.470;2022-08-18T06:16:11;43.80;;;38.40;;
56381;SDS011;50261;51.150;4.470;2022-08-18T06:26:20;42.17;;;37.63;;
56381;SDS011;50261;51.150;4.470;2022-08-18T06:28:52;44.35;;;37.80;;
56381;SDS011;50261;51.150;4.470;2022-08-18T06:39:31;45.33;;;39.33;;
56381;SDS011;50261;51.150;4.470;2022-08-18T06:41:59;46.45;;;39.38;;
56381;SDS011;50261;51.150;4.470;2022-08-18T06:46:54;44.78;;;39.25;;
56381;SDS011;50261;51.150;4.470;2022-08-18T06:49:23;44.13;;;38.95;;
56381;SDS011;50261;51.150;4.470;2022-08-18T06:51:52;42.83;;;38.22;;
56381;SDS011;50261;51.150;4.470;2022-08-18T06:56:45;46.17;;;38.30;;
56381;SDS011;50261;51.150;4.470;2022-08-18T06:59:15;42.63;;;36.50;;
56381;SDS011;50261;51.150;4.470;2022-08-18T07:01:41;44.70;;;38.13;;
56381;SDS011;50261;51.150;4.470;2022-08-18T07:04:07;41.63;;;35.22;;
56381;SDS011;50261;51.150;4.470;2022-08-18T07:06:33;39.05;;;34.00;;
56381;SDS011;50261;51.150;4.470;2022-08-18T07:09:18;42.58;;;34.50;;
56381;SDS011;50261;51.150;4.470;2022-08-18T07:11:58;40.42;;;35.45;;
56381;SDS011;50261;51.150;4.470;2022-08-18T07:14:24;39.55;;;33.10;;
56381;SDS011;50261;51.150;4.470;2022-08-18T07:16:50;39.08;;;33.47;;
56381;SDS011;50261;51.150;4.470;2022-08-18T07:19:29;40.13;;;33.10;;
56381;SDS011;50261;51.150;4.470;2022-08-18T07:24:33;36.50;;;28.00;;
56381;SDS011;50261;51.150;4.470;2022-08-18T07:29:28;40.53;;;26.60;;
56381;SDS011;50261;51.150;4.470;2022-08-18T07:31:54;29.20;;;23.50;;
56381;SDS011;50261;51.150;4.470;2022-08-18T07:34:23;25.08;;;22.38;;
56381;SDS011;50261;51.150;4.470;2022-08-18T07:36:52;33.50;;;25.58;;
56381;SDS011;50261;51.150;4.470;2022-08-18T07:44:49;23.80;;;21.20;;
56381;SDS011;50261;51.150;4.470;2022-08-18T07:47:19;23.48;;;19.38;;
56381;SDS011;50261;51.150;4.470;2022-08-18T07:49:46;21.20;;;18.67;;
56381;SDS011;50261;51.150;4.470;2022-08-18T07:54:46;24.98;;;18.02;;
56381;SDS011;50261;51.150;4.470;2022-08-18T08:07:58;23.13;;;18.27;;
56381;SDS011;50261;51.150;4.470;2022-08-18T08:21:01;35.80;;;26.58;;
56381;SDS011;50261;51.150;4.470;2022-08-18T08:33:50;22.42;;;17.95;;
56381;SDS011;50261;51.150;4.470;2022-08-18T08:38:52;22.90;;;16.83;;
56381;SDS011;50261;51.150;4.470;2022-08-18T08:41:19;33.83;;;17.70;;
56381;SDS011;50261;51.150;4.470;2022-08-18T08:43:48;17.48;;;13.20;;
56381;SDS011;50261;51.150;4.470;2022-08-18T08:46:21;17.25;;;14.20;;
56381;SDS011;50261;51.150;4.470;2022-08-18T08:48:48;15.23;;;13.02;;
56381;SDS011;50261;51.150;4.470;2022-08-18T08:53:44;29.60;;;24.05;;
56381;SDS011;50261;51.150;4.470;2022-08-18T08:56:13;24.30;;;21.75;;
56381;SDS011;50261;51.150;4.470;2022-08-18T09:01:20;24.02;;;19.17;;
56381;SDS011;50261;51.150;4.470;2022-08-18T09:03:48;23.65;;;21.15;;
56381;SDS011;50261;51.150;4.470;2022-08-18T09:21:45;22.45;;;17.20;;
56381;SDS011;50261;51.150;4.470;2022-08-18T09:24:21;17.75;;;15.27;;
56381;SDS011;50261;51.150;4.470;2022-08-18T09:26:49;18.33;;;16.33;;
56381;SDS011;50261;51.150;4.470;2022-08-18T09:31:47;22.27;;;15.93;;
56381;SDS011;50261;51.150;4.470;2022-08-18T09:34:32;16.67;;;14.38;;
56381;SDS011;50261;51.150;4.470;2022-08-18T09:37:17;19.30;;;14.23;;
56381;SDS011;50261;51.150;4.470;2022-08-18T09:39:50;17.50;;;14.75;;
56381;SDS011;50261;51.150;4.470;2022-08-18T09:43:24;18.17;;;14.05;;
56381;SDS011;50261;51.150;4.470;2022-08-18T09:47:56;22.25;;;14.35;;
56381;SDS011;50261;51.150;4.470;2022-08-18T09:52:51;13.88;;;11.45;;
56381;SDS011;50261;51.150;4.470;2022-08-18T09:57:43;14.73;;;11.25;;
56381;SDS011;50261;51.150;4.470;2022-08-18T10:07:48;13.38;;;11.50;;
56381;SDS011;50261;51.150;4.470;2022-08-18T10:10:19;12.95;;;11.50;;
56381;SDS011;50261;51.150;4.470;2022-08-18T10:12:49;14.75;;;12.10;;
56381;SDS011;50261;51.150;4.470;2022-08-18T10:22:51;15.63;;;11.90;;
56381;SDS011;50261;51.150;4.470;2022-08-18T10:25:34;16.88;;;14.75;;
56381;SDS011;50261;51.150;4.470;2022-08-18T10:28:00;16.75;;;14.55;;
56381;SDS011;50261;51.150;4.470;2022-08-18T10:33:01;18.05;;;16.15;;
56381;SDS011;50261;51.150;4.470;2022-08-18T10:37:55;16.30;;;14.50;;
56381;SDS011;50261;51.150;4.470;2022-08-18T10:40:21;12.98;;;11.55;;
56381;SDS011;50261;51.150;4.470;2022-08-18T10:43:00;15.70;;;12.98;;
56381;SDS011;50261;51.150;4.470;2022-08-18T10:45:35;18.23;;;14.32;;
56381;SDS011;50261;51.150;4.470;2022-08-18T10:56:10;20.27;;;16.20;;
56381;SDS011;50261;51.150;4.470;2022-08-18T11:06:15;15.75;;;14.00;;
56381;SDS011;50261;51.150;4.470;2022-08-18T11:08:42;17.55;;;15.05;;
56381;SDS011;50261;51.150;4.470;2022-08-18T11:11:08;16.52;;;14.93;;
56381;SDS011;50261;51.150;4.470;2022-08-18T11:14:18;18.10;;;16.20;;
56381;SDS011;50261;51.150;4.470;2022-08-18T11:16:42;20.38;;;17.98;;
56381;SDS011;50261;51.150;4.470;2022-08-18T11:19:10;21.75;;;19.45;;
56381;SDS011;50261;51.150;4.470;2022-08-18T11:24:25;22.98;;;20.23;;
56381;SDS011;50261;51.150;4.470;2022-08-18T11:29:18;22.15;;;19.70;;
56381;SDS011;50261;51.150;4.470;2022-08-18T11:31:44;20.27;;;18.17;;
56381;SDS011;50261;51.150;4.470;2022-08-18T11:34:17;19.88;;;17.30;;
56381;SDS011;50261;51.150;4.470;2022-08-18T11:36:56;19.67;;;17.23;;
56381;SDS011;50261;51.150;4.470;2022-08-18T11:39:23;17.42;;;15.30;;
56381;SDS011;50261;51.150;4.470;2022-08-18T11:41:49;18.77;;;15.85;;
56381;SDS011;50261;51.150;4.470;2022-08-18T11:44:18;17.55;;;14.82;;
56381;SDS011;50261;51.150;4.470;2022-08-18T11:46:44;18.13;;;13.75;;
56381;SDS011;50261;51.150;4.470;2022-08-18T11:49:17;13.40;;;12.00;;
56381;SDS011;50261;51.150;4.470;2022-08-18T11:51:56;12.02;;;7.75;;
56381;SDS011;50261;51.150;4.470;2022-08-18T11:54:22;11.63;;;7.53;;
56381;SDS011;50261;51.150;4.470;2022-08-18T12:01:56;9.35;;;7.38;;
56381;SDS011;50261;51.150;4.470;2022-08-18T12:04:39;8.30;;;6.68;;
56381;SDS011;50261;51.150;4.470;2022-08-18T12:07:10;8.68;;;7.47;;
56381;SDS011;50261;51.150;4.470;2022-08-18T12:12:12;9.35;;;6.93;;
56381;SDS011;50261;51.150;4.470;2022-08-18T12:14:55;8.00;;;7.20;;
56381;SDS011;50261;51.150;4.470;2022-08-18T12:17:21;9.60;;;7.72;;
56381;SDS011;50261;51.150;4.470;2022-08-18T12:19:47;11.35;;;8.00;;
56381;SDS011;50261;51.150;4.470;2022-08-18T12:22:17;8.25;;;7.45;;
56381;SDS011;50261;51.150;4.470;2022-08-18T12:24:43;10.82;;;7.47;;
56381;SDS011;50261;51.150;4.470;2022-08-18T12:27:11;8.43;;;7.63;;
56381;SDS011;50261;51.150;4.470;2022-08-18T12:29:36;9.98;;;7.88;;
56381;SDS011;50261;51.150;4.470;2022-08-18T12:32:02;8.43;;;7.70;;
56381;SDS011;50261;51.150;4.470;2022-08-18T12:34:27;8.60;;;7.78;;
56381;SDS011;50261;51.150;4.470;2022-08-18T12:36:53;9.32;;;8.15;;
56381;SDS011;50261;51.150;4.470;2022-08-18T12:39:19;9.85;;;8.50;;
56381;SDS011;50261;51.150;4.470;2022-08-18T12:41:45;9.15;;;8.25;;
56381;SDS011;50261;51.150;4.470;2022-08-18T12:44:10;9.77;;;8.07;;
56381;SDS011;50261;51.150;4.470;2022-08-18T12:46:36;10.88;;;9.77;;
56381;SDS011;50261;51.150;4.470;2022-08-18T12:49:02;9.18;;;8.00;;
56381;SDS011;50261;51.150;4.470;2022-08-18T12:51:28;7.75;;;6.82;;
56381;SDS011;50261;51.150;4.470;2022-08-18T12:53:54;9.75;;;7.75;;
56381;SDS011;50261;51.150;4.470;2022-08-18T12:56:29;8.27;;;7.47;;
56381;SDS011;50261;51.150;4.470;2022-08-18T12:58:55;10.43;;;7.97;;
56381;SDS011;50261;51.150;4.470;2022-08-18T13:01:21;9.98;;;7.28;;
56381;SDS011;50261;51.150;4.470;2022-08-18T13:03:47;8.50;;;7.80;;
56381;SDS011;50261;51.150;4.470;2022-08-18T13:06:13;9.38;;;8.48;;
56381;SDS011;50261;51.150;4.470;2022-08-18T13:08:39;9.10;;;8.20;;
56381;SDS011;50261;51.150;4.470;2022-08-18T13:11:04;9.00;;;8.05;;
56381;SDS011;50261;51.150;4.470;2022-08-18T13:13:35;9.27;;;8.38;;
56381;SDS011;50261;51.150;4.470;2022-08-18T13:16:01;10.90;;;9.90;;
56381;SDS011;50261;51.150;4.470;2022-08-18T13:18:27;9.23;;;8.35;;
56381;SDS011;50261;51.150;4.470;2022-08-18T13:20:53;8.05;;;6.55;;
56381;SDS011;50261;51.150;4.470;2022-08-18T13:23:18;7.18;;;6.47;;
56381;SDS011;50261;51.150;4.470;2022-08-18T13:25:44;9.25;;;8.30;;
56381;SDS011;50261;51.150;4.470;2022-08-18T13:28:09;7.40;;;6.55;;
56381;SDS011;50261;51.150;4.470;2022-08-18T13:30:34;6.78;;;6.22;;
56381;SDS011;50261;51.150;4.470;2022-08-18T13:33:00;7.20;;;6.28;;
56381;SDS011;50261;51.150;4.470;2022-08-18T13:35:26;9.05;;;6.60;;
56381;SDS011;50261;51.150;4.470;2022-08-18T13:37:51;6.47;;;5.78;;
56381;SDS011;50261;51.150;4.470;2022-08-18T13:40:19;5.68;;;5.18;;
56381;SDS011;50261;51.150;4.470;2022-08-18T13:42:46;8.65;;;6.15;;
56381;SDS011;50261;51.150;4.470;2022-08-18T13:45:13;7.35;;;5.15;;
56381;SDS011;50261;51.150;4.470;2022-08-18T13:47:38;6.38;;;5.03;;
56381;SDS011;50261;51.150;4.470;2022-08-18T13:50:04;6.47;;;5.78;;
56381;SDS011;50261;51.150;4.470;2022-08-18T13:52:30;8.80;;;7.90;;
56381;SDS011;50261;51.150;4.470;2022-08-18T13:54:56;10.25;;;8.35;;
56381;SDS011;50261;51.150;4.470;2022-08-18T13:57:22;10.10;;;8.02;;
56381;SDS011;50261;51.150;4.470;2022-08-18T13:59:47;10.18;;;8.07;;
56381;SDS011;50261;51.150;4.470;2022-08-18T14:02:13;9.07;;;6.82;;
56381;SDS011;50261;51.150;4.470;2022-08-18T14:04:38;11.75;;;8.52;;
56381;SDS011;50261;51.150;4.470;2022-08-18T14:07:05;8.35;;;6.45;;
56381;SDS011;50261;51.150;4.470;2022-08-18T14:09:31;6.88;;;5.80;;
56381;SDS011;50261;51.150;4.470;2022-08-18T14:11:57;6.97;;;5.68;;
56381;SDS011;50261;51.150;4.470;2022-08-18T14:14:22;6.43;;;5.70;;
56381;SDS011;50261;51.150;4.470;2022-08-18T14:16:48;6.72;;;6.13;;
56381;SDS011;50261;51.150;4.470;2022-08-18T14:19:13;6.32;;;5.70;;
56381;SDS011;50261;51.150;4.470;2022-08-18T14:21:58;6.00;;;5.32;;
56381;SDS011;50261;51.150;4.470;2022-08-18T14:24:42;6.20;;;5.60;;
56381;SDS011;50261;51.150;4.470;2022-08-18T14:27:28;5.82;;;5.13;;
56381;SDS011;50261;51.150;4.470;2022-08-18T14:29:55;7.53;;;4.85;;
56381;SDS011;50261;51.150;4.470;2022-08-18T14:32:21;6.50;;;5.55;;
56381;SDS011;50261;51.150;4.470;2022-08-18T14:34:47;5.82;;;5.10;;
56381;SDS011;50261;51.150;4.470;2022-08-18T14:37:12;5.93;;;5.17;;
56381;SDS011;50261;51.150;4.470;2022-08-18T14:39:38;5.15;;;4.65;;
56381;SDS011;50261;51.150;4.470;2022-08-18T14:42:03;6.22;;;4.50;;
56381;SDS011;50261;51.150;4.470;2022-08-18T14:44:29;5.20;;;4.05;;
56381;SDS011;50261;51.150;4.470;2022-08-18T14:46:54;5.90;;;4.25;;
56381;SDS011;50261;51.150;4.470;2022-08-18T14:49:22;5.55;;;3.92;;
56381;SDS011;50261;51.150;4.470;2022-08-18T14:51:47;7.47;;;4.60;;
56381;SDS011;50261;51.150;4.470;2022-08-18T14:54:13;5.80;;;3.90;;
56381;SDS011;50261;51.150;4.470;2022-08-18T14:56:38;5.65;;;4.03;;
56381;SDS011;50261;51.150;4.470;2022-08-18T14:59:04;8.00;;;4.63;;
56381;SDS011;50261;51.150;4.470;2022-08-18T15:01:32;6.15;;;4.60;;
56381;SDS011;50261;51.150;4.470;2022-08-18T15:03:58;5.28;;;4.70;;
56381;SDS011;50261;51.150;4.470;2022-08-18T15:06:27;5.35;;;4.82;;
56381;SDS011;50261;51.150;4.470;2022-08-18T15:08:52;8.13;;;5.53;;
56381;SDS011;50261;51.150;4.470;2022-08-18T15:11:18;8.82;;;5.40;;
56381;SDS011;50261;51.150;4.470;2022-08-18T15:13:43;8.38;;;6.10;;
56381;SDS011;50261;51.150;4.470;2022-08-18T15:16:10;6.57;;;5.45;;
56381;SDS011;50261;51.150;4.470;2022-08-18T15:18:38;6.72;;;5.80;;
56381;SDS011;50261;51.150;4.470;2022-08-18T15:21:04;7.88;;;4.40;;
56381;SDS011;50261;51.150;4.470;2022-08-18T15:23:48;4.57;;;4.10;;
56381;SDS011;50261;51.150;4.470;2022-08-18T15:26:32;4.30;;;3.63;;
56381;SDS011;50261;51.150;4.470;2022-08-18T15:28:57;6.85;;;5.93;;
56381;SDS011;50261;51.150;4.470;2022-08-18T15:31:23;5.13;;;4.60;;
56381;SDS011;50261;51.150;4.470;2022-08-18T15:33:53;4.82;;;4.18;;
56381;SDS011;50261;51.150;4.470;2022-08-18T15:36:21;5.78;;;4.70;;
56381;SDS011;50261;51.150;4.470;2022-08-18T15:38:51;4.70;;;3.95;;
56381;SDS011;50261;51.150;4.470;2022-08-18T15:41:36;5.95;;;4.22;;
56381;SDS011;50261;51.150;4.470;2022-08-18T15:44:03;5.45;;;3.80;;
56381;SDS011;50261;51.150;4.470;2022-08-18T15:46:35;4.82;;;4.35;;
56381;SDS011;50261;51.150;4.470;2022-08-18T15:49:02;6.22;;;4.30;;
56381;SDS011;50261;51.150;4.470;2022-08-18T15:51:30;5.18;;;4.25;;
56381;SDS011;50261;51.150;4.470;2022-08-18T15:53:56;4.53;;;3.85;;
56381;SDS011;50261;51.150;4.470;2022-08-18T15:56:22;6.88;;;4.20;;
56381;SDS011;50261;51.150;4.470;2022-08-18T15:58:48;5.10;;;4.18;;
56381;SDS011;50261;51.150;4.470;2022-08-18T16:01:14;5.55;;;4.10;;
56381;SDS011;50261;51.150;4.470;2022-08-18T16:03:39;4.80;;;4.03;;
56381;SDS011;50261;51.150;4.470;2022-08-18T16:06:05;5.53;;;4.20;;
56381;SDS011;50261;51.150;4.470;2022-08-18T16:08:32;6.72;;;4.38;;
56381;SDS011;50261;51.150;4.470;2022-08-18T16:11:04;6.68;;;4.90;;
56381;SDS011;50261;51.150;4.470;2022-08-18T16:13:30;8.27;;;5.00;;
56381;SDS011;50261;51.150;4.470;2022-08-18T16:15:55;6.03;;;5.00;;
56381;SDS011;50261;51.150;4.470;2022-08-18T16:18:25;6.40;;;4.55;;
56381;SDS011;50261;51.150;4.470;2022-08-18T16:20:51;7.05;;;5.30;;
56381;SDS011;50261;51.150;4.470;2022-08-18T16:23:17;5.82;;;4.88;;
56381;SDS011;50261;51.150;4.470;2022-08-18T16:25:42;5.20;;;4.78;;
56381;SDS011;50261;51.150;4.470;2022-08-18T16:28:10;6.43;;;4.65;;
56381;SDS011;50261;51.150;4.470;2022-08-18T16:30:47;6.57;;;5.05;;
56381;SDS011;50261;51.150;4.470;2022-08-18T16:33:13;6.82;;;5.45;;
56381;SDS011;50261;51.150;4.470;2022-08-18T16:35:38;7.57;;;4.70;;
56381;SDS011;50261;51.150;4.470;2022-08-18T16:38:05;4.85;;;4.35;;
56381;SDS011;50261;51.150;4.470;2022-08-18T16:40:30;6.45;;;4.70;;
56381;SDS011;50261;51.150;4.470;2022-08-18T16:42:56;6.85;;;5.28;;
56381;SDS011;50261;51.150;4.470;2022-08-18T16:45:27;6.68;;;5.53;;
56381;SDS011;50261;51.150;4.470;2022-08-18T16:47:57;7.10;;;5.22;;
56381;SDS011;50261;51.150;4.470;2022-08-18T16:50:23;8.50;;;4.65;;
56381;SDS011;50261;51.150;4.470;2022-08-18T16:52:49;5.80;;;4.88;;
56381;SDS011;50261;51.150;4.470;2022-08-18T16:55:14;8.32;;;4.53;;
56381;SDS011;50261;51.150;4.470;2022-08-18T16:57:41;6.30;;;4.75;;
56381;SDS011;50261;51.150;4.470;2022-08-18T17:00:25;6.95;;;4.57;;
56381;SDS011;50261;51.150;4.470;2022-08-18T17:03:19;4.60;;;4.18;;
56381;SDS011;50261;51.150;4.470;2022-08-18T17:06:09;7.07;;;4.75;;
56381;SDS011;50261;51.150;4.470;2022-08-18T17:08:35;5.47;;;4.40;;
56381;SDS011;50261;51.150;4.470;2022-08-18T17:11:06;6.68;;;4.55;;
56381;SDS011;50261;51.150;4.470;2022-08-18T17:13:33;8.65;;;4.88;;
56381;SDS011;50261;51.150;4.470;2022-08-18T17:15:59;5.72;;;4.75;;